sensor_id;sensor_type;location;lat;lon;timestamp;pressure;altitude;pressure_sealevel;temperature;humidity
30421;BME280;17218;54.070;10.012;2023-06-10T00:01:00;101763.44;;;15.50;100.00
30421;BME280;17218;54.070;10.012;2023-06-10T00:03:26;101761.81;;;15.43;100.00
30421;BME280;17218;54.070;10.012;2023-06-10T00:05:55;101760.06;;;15.44;100.00
30421;BME280;17218;54.070;10.012;2023-06-10T00:08:21;101753.06;;;15.44;100.00
30421;BME280;17218;54.070;10.012;2023-06-10T00:10:48;101756.53;;;15.46;100.00
30421;BME280;17218;54.070;10.012;2023-06-10T00:13:14;101745.31;;;15.38;100.00
30421;BME280;17218;54.070;10.012;2023-06-10T00:15:42;101759.31;;;15.32;100.00
30421;BME280;17218;54.070;10.012;2023-06-10T00:18:08;101747.13;;;15.33;100.00
30421;BME280;17218;54.070;10.012;2023-06-10T00:20:35;101750.59;;;15.33;100.00
30421;BME280;17218;54.070;10.012;2023-06-10T00:23:04;101746.28;;;15.27;100.00
30421;BME280;17218;54.070;10.012;2023-06-10T00:25:33;101747.25;;;15.22;100.00
30421;BME280;17218;54.070;10.012;2023-06-10T00:28:00;101750.78;;;15.14;100.00
30421;BME280;17218;54.070;10.012;2023-06-10T00:30:26;101763.00;;;15.11;100.00
30421;BME280;17218;54.070;10.012;2023-06-10T00:32:53;101753.44;;;15.10;100.00
30421;BME280;17218;54.070;10.012;2023-06-10T00:35:19;101755.19;;;15.09;100.00
30421;BME280;17218;54.070;10.012;2023-06-10T00:37:46;101749.94;;;15.11;100.00
30421;BME280;17218;54.070;10.012;2023-06-10T00:40:14;101758.66;;;15.10;100.00
30421;BME280;17218;54.070;10.012;2023-06-10T00:42:40;101749.94;;;15.11;100.00
30421;BME280;17218;54.070;10.012;2023-06-10T00:45:07;101763.88;;;15.11;100.00
30421;BME280;17218;54.070;10.012;2023-06-10T00:47:34;101757.69;;;15.19;100.00
30421;BME280;17218;54.070;10.012;2023-06-10T00:50:01;101745.47;;;15.22;100.00
30421;BME280;17218;54.070;10.012;2023-06-10T00:52:29;101746.44;;;15.15;100.00
30421;BME280;17218;54.070;10.012;2023-06-10T00:54:56;101747.44;;;15.03;100.00
30421;BME280;17218;54.070;10.012;2023-06-10T00:57:25;101750.13;;;14.94;100.00
30421;BME280;17218;54.070;10.012;2023-06-10T00:59:52;101750.16;;;14.89;100.00
30421;BME280;17218;54.070;10.012;2023-06-10T01:02:18;101748.47;;;14.85;100.00
30421;BME280;17218;54.070;10.012;2023-06-10T01:04:45;101758.03;;;14.84;100.00
30421;BME280;17218;54.070;10.012;2023-06-10T01:07:18;101749.31;;;14.88;100.00
30421;BME280;17218;54.070;10.012;2023-06-10T01:09:54;101757.97;;;14.89;100.00
30421;BME280;17218;54.070;10.012;2023-06-10T01:12:29;101751.06;;;14.88;100.00
30421;BME280;17218;54.070;10.012;2023-06-10T01:14:58;101760.56;;;14.90;100.00
30421;BME280;17218;54.070;10.012;2023-06-10T01:17:25;101753.63;;;14.91;100.00
30421;BME280;17218;54.070;10.012;2023-06-10T01:19:53;101754.53;;;14.88;100.00
30421;BME280;17218;54.070;10.012;2023-06-10T01:22:23;101755.41;;;14.86;100.00
30421;BME280;17218;54.070;10.012;2023-06-10T01:24:51;101753.75;;;14.75;100.00
30421;BME280;17218;54.070;10.012;2023-06-10T01:27:19;101758.97;;;14.75;100.00
30421;BME280;17218;54.070;10.012;2023-06-10T01:29:50;101754.63;;;14.71;100.00
30421;BME280;17218;54.070;10.012;2023-06-10T01:32:26;101745.97;;;14.67;100.00
30421;BME280;17218;54.070;10.012;2023-06-10T01:34:55;101757.28;;;14.65;100.00
30421;BME280;17218;54.070;10.012;2023-06-10T01:37:24;101752.94;;;14.65;100.00
30421;BME280;17218;54.070;10.012;2023-06-10T01:39:55;101751.25;;;14.58;100.00
30421;BME280;17218;54.070;10.012;2023-06-10T01:42:23;101755.59;;;14.61;100.00
30421;BME280;17218;54.070;10.012;2023-06-10T01:44:50;101758.19;;;14.59;100.00
30421;BME280;17218;54.070;10.012;2023-06-10T01:47:17;101759.91;;;14.63;100.00
30421;BME280;17218;54.070;10.012;2023-06-10T01:49:44;101768.59;;;14.65;100.00
30421;BME280;17218;54.070;10.012;2023-06-10T01:52:10;101772.97;;;14.62;100.00
30421;BME280;17218;54.070;10.012;2023-06-10T01:54:38;101766.03;;;14.59;100.00
30421;BME280;17218;54.070;10.012;2023-06-10T01:57:05;101766.03;;;14.59;100.00
30421;BME280;17218;54.070;10.012;2023-06-10T01:59:32;101760.81;;;14.62;100.00
30421;BME280;17218;54.070;10.012;2023-06-10T02:01:58;101761.66;;;14.61;100.00
30421;BME280;17218;54.070;10.012;2023-06-10T02:04:25;101761.72;;;14.55;100.00
30421;BME280;17218;54.070;10.012;2023-06-10T02:06:51;101761.66;;;14.63;100.00
30421;BME280;17218;54.070;10.012;2023-06-10T02:09:18;101765.13;;;14.63;100.00
30421;BME280;17218;54.070;10.012;2023-06-10T02:11:46;101762.56;;;14.60;100.00
30421;BME280;17218;54.070;10.012;2023-06-10T02:14:13;101748.59;;;14.66;100.00
30421;BME280;17218;54.070;10.012;2023-06-10T02:16:39;101762.44;;;14.74;100.00
30421;BME280;17218;54.070;10.012;2023-06-10T02:19:06;101759.88;;;14.70;100.00
30421;BME280;17218;54.070;10.012;2023-06-10T02:21:32;101761.63;;;14.67;100.00
30421;BME280;17218;54.070;10.012;2023-06-10T02:23:59;101761.72;;;14.57;100.00
30421;BME280;17218;54.070;10.012;2023-06-10T02:26:26;101760.88;;;14.50;100.00
30421;BME280;17218;54.070;10.012;2023-06-10T02:28:54;101760.88;;;14.48;100.00
30421;BME280;17218;54.070;10.012;2023-06-10T02:31:20;101760.03;;;14.48;100.00
30421;BME280;17218;54.070;10.012;2023-06-10T02:33:48;101768.75;;;14.45;100.00
30421;BME280;17218;54.070;10.012;2023-06-10T02:36:15;101763.50;;;14.47;100.00
30421;BME280;17218;54.070;10.012;2023-06-10T02:38:41;101767.88;;;14.45;100.00
30421;BME280;17218;54.070;10.012;2023-06-10T02:41:08;101768.72;;;14.48;100.00
30421;BME280;17218;54.070;10.012;2023-06-10T02:43:34;101767.81;;;14.52;100.00
30421;BME280;17218;54.070;10.012;2023-06-10T02:46:02;101770.38;;;14.55;100.00
30421;BME280;17218;54.070;10.012;2023-06-10T02:48:29;101773.88;;;14.56;100.00
30421;BME280;17218;54.070;10.012;2023-06-10T02:50:55;101773.84;;;14.62;100.00
30421;BME280;17218;54.070;10.012;2023-06-10T02:53:22;101775.56;;;14.62;100.00
30421;BME280;17218;54.070;10.012;2023-06-10T02:55:48;101761.66;;;14.61;100.00
30421;BME280;17218;54.070;10.012;2023-06-10T02:58:15;101766.03;;;14.58;100.00
30421;BME280;17218;54.070;10.012;2023-06-10T03:00:41;101774.75;;;14.52;100.00
30421;BME280;17218;54.070;10.012;2023-06-10T03:03:09;101773.88;;;14.56;100.00
30421;BME280;17218;54.070;10.012;2023-06-10T03:05:37;101772.16;;;14.50;100.00
30421;BME280;17218;54.070;10.012;2023-06-10T03:08:04;101776.53;;;14.47;100.00
30421;BME280;17218;54.070;10.012;2023-06-10T03:10:30;101775.66;;;14.51;100.00
30421;BME280;17218;54.070;10.012;2023-06-10T03:12:58;101780.88;;;14.51;100.00
30421;BME280;17218;54.070;10.012;2023-06-10T03:15:24;101778.25;;;14.52;100.00
30421;BME280;17218;54.070;10.012;2023-06-10T03:17:51;101765.19;;;14.59;100.00
30421;BME280;17218;54.070;10.012;2023-06-10T03:20:18;101771.25;;;14.61;100.00
30421;BME280;17218;54.070;10.012;2023-06-10T03:22:47;101774.72;;;14.60;100.00
30421;BME280;17218;54.070;10.012;2023-06-10T03:25:13;101771.25;;;14.61;100.00
30421;BME280;17218;54.070;10.012;2023-06-10T03:27:40;101764.28;;;14.60;100.00
30421;BME280;17218;54.070;10.012;2023-06-10T03:30:07;101780.81;;;14.55;100.00
30421;BME280;17218;54.070;10.012;2023-06-10T03:32:34;101780.03;;;14.47;100.00
30421;BME280;17218;54.070;10.012;2023-06-10T03:35:02;101785.28;;;14.41;100.00
30421;BME280;17218;54.070;10.012;2023-06-10T03:37:30;101784.41;;;14.39;100.00
30421;BME280;17218;54.070;10.012;2023-06-10T03:39:56;101775.75;;;14.38;100.00
30421;BME280;17218;54.070;10.012;2023-06-10T03:42:23;101781.81;;;14.37;100.00
30421;BME280;17218;54.070;10.012;2023-06-10T03:44:50;101781.84;;;14.36;100.00
30421;BME280;17218;54.070;10.012;2023-06-10T03:47:17;101780.09;;;14.36;100.00
30421;BME280;17218;54.070;10.012;2023-06-10T03:49:44;101782.69;;;14.39;100.00
30421;BME280;17218;54.070;10.012;2023-06-10T03:52:10;101776.59;;;14.42;100.00
30421;BME280;17218;54.070;10.012;2023-06-10T03:54:38;101780.88;;;14.46;100.00
30421;BME280;17218;54.070;10.012;2023-06-10T03:57:05;101781.72;;;14.50;100.00
30421;BME280;17218;54.070;10.012;2023-06-10T03:59:32;101776.53;;;14.48;100.00
30421;BME280;17218;54.070;10.012;2023-06-10T04:01:58;101776.50;;;14.53;100.00
30421;BME280;17218;54.070;10.012;2023-06-10T04:04:25;101787.78;;;14.57;100.00
30421;BME280;17218;54.070;10.012;2023-06-10T04:06:52;101779.03;;;14.64;100.00
30421;BME280;17218;54.070;10.012;2023-06-10T04:09:18;101783.38;;;14.65;100.00
30421;BME280;17218;54.070;10.012;2023-06-10T04:11:46;101778.97;;;14.72;100.00
30421;BME280;17218;54.070;10.012;2023-06-10T04:14:13;101778.91;;;14.79;100.00
30421;BME280;17218;54.070;10.012;2023-06-10T04:16:39;101778.06;;;14.82;100.00
30421;BME280;17218;54.070;10.012;2023-06-10T04:19:07;101788.47;;;14.84;100.00
30421;BME280;17218;54.070;10.012;2023-06-10T04:21:34;101784.97;;;14.88;100.00
30421;BME280;17218;54.070;10.012;2023-06-10T04:24:01;101787.50;;;14.96;100.00
30421;BME280;17218;54.070;10.012;2023-06-10T04:26:28;101790.94;;;15.01;100.00
30421;BME280;17218;54.070;10.012;2023-06-10T04:28:55;101782.22;;;15.02;100.00
30421;BME280;17218;54.070;10.012;2023-06-10T04:31:22;101794.38;;;15.05;100.00
30421;BME280;17218;54.070;10.012;2023-06-10T04:33:48;101784.84;;;15.00;100.00
30421;BME280;17218;54.070;10.012;2023-06-10T04:36:15;101780.53;;;14.96;100.00
30421;BME280;17218;54.070;10.012;2023-06-10T04:38:41;101785.72;;;15.01;100.00
30421;BME280;17218;54.070;10.012;2023-06-10T04:41:08;101776.13;;;15.03;100.00
30421;BME280;17218;54.070;10.012;2023-06-10T04:43:34;101772.63;;;15.06;100.00
30421;BME280;17218;54.070;10.012;2023-06-10T04:46:02;101782.97;;;15.13;100.00
30421;BME280;17218;54.070;10.012;2023-06-10T04:48:29;101773.38;;;15.17;100.00
30421;BME280;17218;54.070;10.012;2023-06-10T04:50:55;101775.13;;;15.17;100.00
30421;BME280;17218;54.070;10.012;2023-06-10T04:53:22;101781.13;;;15.26;100.00
30421;BME280;17218;54.070;10.012;2023-06-10T04:55:48;101783.72;;;15.26;100.00
30421;BME280;17218;54.070;10.012;2023-06-10T04:58:15;101782.81;;;15.32;100.00
30421;BME280;17218;54.070;10.012;2023-06-10T05:00:42;101774.06;;;15.36;100.00
30421;BME280;17218;54.070;10.012;2023-06-10T05:03:10;101774.91;;;15.40;100.00
30421;BME280;17218;54.070;10.012;2023-06-10T05:05:36;101779.28;;;15.36;100.00
30421;BME280;17218;54.070;10.012;2023-06-10T05:08:03;101785.34;;;15.40;100.00
30421;BME280;17218;54.070;10.012;2023-06-10T05:10:30;101784.47;;;15.38;100.00
30421;BME280;17218;54.070;10.012;2023-06-10T05:12:57;101790.50;;;15.45;100.00
30421;BME280;17218;54.070;10.012;2023-06-10T05:15:24;101780.06;;;15.43;100.00
30421;BME280;17218;54.070;10.012;2023-06-10T05:17:51;101775.63;;;15.50;100.00
30421;BME280;17218;54.070;10.012;2023-06-10T05:20:19;101775.63;;;15.52;100.00
30421;BME280;17218;54.070;10.012;2023-06-10T05:22:45;101771.25;;;15.52;100.00
30421;BME280;17218;54.070;10.012;2023-06-10T05:25:12;101778.16;;;15.59;100.00
30421;BME280;17218;54.070;10.012;2023-06-10T05:27:38;101772.72;;;15.77;100.00
30421;BME280;17218;54.070;10.012;2023-06-10T05:30:08;101774.31;;;15.87;100.00
30421;BME280;17218;54.070;10.012;2023-06-10T05:32:35;101772.50;;;15.95;100.00
30421;BME280;17218;54.070;10.012;2023-06-10T05:35:01;101771.47;;;16.07;100.00
30421;BME280;17218;54.070;10.012;2023-06-10T05:37:33;101771.25;;;16.23;100.00
30421;BME280;17218;54.070;10.012;2023-06-10T05:39:59;101765.03;;;16.32;100.00
30421;BME280;17218;54.070;10.012;2023-06-10T05:42:26;101771.97;;;16.35;100.00
30421;BME280;17218;54.070;10.012;2023-06-10T05:44:52;101775.44;;;16.35;100.00
30421;BME280;17218;54.070;10.012;2023-06-10T05:47:19;101771.09;;;16.34;100.00
30421;BME280;17218;54.070;10.012;2023-06-10T05:49:45;101764.06;;;16.38;100.00
30421;BME280;17218;54.070;10.012;2023-06-10T05:52:13;101769.19;;;16.45;100.00
30421;BME280;17218;54.070;10.012;2023-06-10T05:54:41;101773.69;;;16.36;100.00
30421;BME280;17218;54.070;10.012;2023-06-10T05:57:08;101764.94;;;16.38;100.00
30421;BME280;17218;54.070;10.012;2023-06-10T05:59:35;101758.81;;;16.39;100.00
30421;BME280;17218;54.070;10.012;2023-06-10T06:02:02;101762.28;;;16.41;100.00
30421;BME280;17218;54.070;10.012;2023-06-10T06:04:28;101753.34;;;16.55;100.00
30421;BME280;17218;54.070;10.012;2023-06-10T06:06:55;101759.41;;;16.57;100.00
30421;BME280;17218;54.070;10.012;2023-06-10T06:09:21;101759.56;;;16.46;100.00
30421;BME280;17218;54.070;10.012;2023-06-10T06:11:49;101770.09;;;16.43;100.00
30421;BME280;17218;54.070;10.012;2023-06-10T06:14:16;101758.50;;;16.60;100.00
30421;BME280;17218;54.070;10.012;2023-06-10T06:16:42;101764.63;;;16.59;100.00
30421;BME280;17218;54.070;10.012;2023-06-10T06:19:09;101761.06;;;16.63;100.00
30421;BME280;17218;54.070;10.012;2023-06-10T06:21:36;101760.09;;;16.68;100.00
30421;BME280;17218;54.070;10.012;2023-06-10T06:24:03;101761.81;;;16.71;100.00
30421;BME280;17218;54.070;10.012;2023-06-10T06:26:29;101753.94;;;16.73;100.00
30421;BME280;17218;54.070;10.012;2023-06-10T06:28:57;101768.72;;;16.75;100.00
30421;BME280;17218;54.070;10.012;2023-06-10T06:31:23;101761.50;;;16.90;100.00
30421;BME280;17218;54.070;10.012;2023-06-10T06:33:50;101765.59;;;17.03;100.00
30421;BME280;17218;54.070;10.012;2023-06-10T06:36:17;101765.22;;;17.25;100.00
30421;BME280;17218;54.070;10.012;2023-06-10T06:38:43;101759.78;;;17.38;100.00
30421;BME280;17218;54.070;10.012;2023-06-10T06:41:09;101761.41;;;17.44;100.00
30421;BME280;17218;54.070;10.012;2023-06-10T06:43:36;101758.53;;;17.56;100.00
30421;BME280;17218;54.070;10.012;2023-06-10T06:46:05;101759.19;;;17.66;100.00
30421;BME280;17218;54.070;10.012;2023-06-10T06:48:32;101761.53;;;17.80;100.00
30421;BME280;17218;54.070;10.012;2023-06-10T06:50:58;101761.16;;;17.97;100.00
30421;BME280;17218;54.070;10.012;2023-06-10T06:53:25;101761.78;;;18.09;100.00
30421;BME280;17218;54.070;10.012;2023-06-10T06:55:52;101757.03;;;18.27;100.00
30421;BME280;17218;54.070;10.012;2023-06-10T06:58:18;101762.78;;;18.43;100.00
30421;BME280;17218;54.070;10.012;2023-06-10T07:00:45;101771.44;;;18.46;100.00
30421;BME280;17218;54.070;10.012;2023-06-10T07:03:13;101767.81;;;18.52;100.00
30421;BME280;17218;54.070;10.012;2023-06-10T07:05:39;101779.44;;;18.42;100.00
30421;BME280;17218;54.070;10.012;2023-06-10T07:08:06;101772.22;;;18.50;100.00
30421;BME280;17218;54.070;10.012;2023-06-10T07:10:32;101773.03;;;18.52;100.00
30421;BME280;17218;54.070;10.012;2023-06-10T07:12:59;101781.69;;;18.56;100.00
30421;BME280;17218;54.070;10.012;2023-06-10T07:15:25;101787.66;;;18.63;100.00
30421;BME280;17218;54.070;10.012;2023-06-10T07:17:52;101778.44;;;18.81;100.00
30421;BME280;17218;54.070;10.012;2023-06-10T07:20:20;101780.22;;;18.80;100.00
30421;BME280;17218;54.070;10.012;2023-06-10T07:22:46;101783.78;;;18.78;100.00
30421;BME280;17218;54.070;10.012;2023-06-10T07:25:13;101784.75;;;18.74;100.00
30421;BME280;17218;54.070;10.012;2023-06-10T07:27:40;101783.41;;;18.57;100.00
30421;BME280;17218;54.070;10.012;2023-06-10T07:30:08;101782.34;;;18.64;100.00
30421;BME280;17218;54.070;10.012;2023-06-10T07:32:34;101777.94;;;18.66;100.00
30421;BME280;17218;54.070;10.012;2023-06-10T07:35:01;101782.03;;;18.78;100.00
30421;BME280;17218;54.070;10.012;2023-06-10T07:37:29;101786.88;;;18.94;100.00
30421;BME280;17218;54.070;10.012;2023-06-10T07:39:56;101785.56;;;19.11;100.00
30421;BME280;17218;54.070;10.012;2023-06-10T07:42:22;101782.78;;;19.18;100.00
30421;BME280;17218;54.070;10.012;2023-06-10T07:44:49;101783.50;;;19.24;100.00
30421;BME280;17218;54.070;10.012;2023-06-10T07:47:15;101787.63;;;19.34;100.00
30421;BME280;17218;54.070;10.012;2023-06-10T07:49:42;101788.34;;;19.39;100.00
30421;BME280;17218;54.070;10.012;2023-06-10T07:52:08;101780.28;;;19.46;100.00
30421;BME280;17218;54.070;10.012;2023-06-10T07:54:36;101780.72;;;19.60;100.00
30421;BME280;17218;54.070;10.012;2023-06-10T07:57:03;101786.44;;;19.76;100.00
30421;BME280;17218;54.070;10.012;2023-06-10T07:59:32;101775.72;;;19.83;100.00
30421;BME280;17218;54.070;10.012;2023-06-10T08:01:58;101777.22;;;19.92;100.00
30421;BME280;17218;54.070;10.012;2023-06-10T08:04:25;101785.91;;;19.94;100.00
30421;BME280;17218;54.070;10.012;2023-06-10T08:06:51;101765.59;;;19.99;100.00
30421;BME280;17218;54.070;10.012;2023-06-10T08:09:18;101770.66;;;20.05;100.00
30421;BME280;17218;54.070;10.012;2023-06-10T08:11:48;101778.81;;;19.96;100.00
30421;BME280;17218;54.070;10.012;2023-06-10T08:14:15;101768.25;;;19.97;100.00
30421;BME280;17218;54.070;10.012;2023-06-10T08:16:42;101773.03;;;20.14;100.00
30421;BME280;17218;54.070;10.012;2023-06-10T08:19:09;101765.19;;;20.13;100.00
30421;BME280;17218;54.070;10.012;2023-06-10T08:21:35;101761.13;;;20.02;100.00
30421;BME280;17218;54.070;10.012;2023-06-10T08:24:05;101766.06;;;20.13;100.00
30421;BME280;17218;54.070;10.012;2023-06-10T08:26:31;101759.41;;;20.30;100.00
30421;BME280;17218;54.070;10.012;2023-06-10T08:28:59;101759.75;;;20.46;100.00
30421;BME280;17218;54.070;10.012;2023-06-10T08:31:26;101763.72;;;20.60;100.00
30421;BME280;17218;54.070;10.012;2023-06-10T08:33:52;101759.22;;;20.62;100.00
30421;BME280;17218;54.070;10.012;2023-06-10T08:36:19;101757.09;;;20.73;100.00
30421;BME280;17218;54.070;10.012;2023-06-10T08:38:45;101770.88;;;20.82;100.00
30421;BME280;17218;54.070;10.012;2023-06-10T08:41:14;101770.44;;;20.94;100.00
30421;BME280;17218;54.070;10.012;2023-06-10T08:43:45;101757.94;;;21.01;100.00
30421;BME280;17218;54.070;10.012;2023-06-10T08:46:14;101766.13;;;21.19;100.00
30421;BME280;17218;54.070;10.012;2023-06-10T08:48:42;101761.34;;;21.29;100.00
30421;BME280;17218;54.070;10.012;2023-06-10T08:51:10;101766.28;;;21.38;100.00
30421;BME280;17218;54.070;10.012;2023-06-10T08:53:41;101759.03;;;21.45;100.00
30421;BME280;17218;54.070;10.012;2023-06-10T08:56:10;101764.72;;;21.56;100.00
30421;BME280;17218;54.070;10.012;2023-06-10T08:58:37;101763.66;;;21.62;100.00
30421;BME280;17218;54.070;10.012;2023-06-10T09:01:07;101767.22;;;21.61;100.00
30421;BME280;17218;54.070;10.012;2023-06-10T09:03:36;101763.50;;;21.67;100.00
30421;BME280;17218;54.070;10.012;2023-06-10T09:06:04;101758.59;;;21.80;100.00
30421;BME280;17218;54.070;10.012;2023-06-10T09:08:33;101762.69;;;21.89;100.00
30421;BME280;17218;54.070;10.012;2023-06-10T09:11:00;101765.78;;;21.99;100.00
30421;BME280;17218;54.070;10.012;2023-06-10T09:13:27;101760.97;;;22.10;100.00
30421;BME280;17218;54.070;10.012;2023-06-10T09:15:54;101767.72;;;22.17;100.00
30421;BME280;17218;54.070;10.012;2023-06-10T09:18:25;101757.22;;;22.16;100.00
30421;BME280;17218;54.070;10.012;2023-06-10T09:20:53;101751.50;;;22.04;100.00
30421;BME280;17218;54.070;10.012;2023-06-10T09:23:21;101761.63;;;22.15;100.00
30421;BME280;17218;54.070;10.012;2023-06-10T09:25:56;101760.41;;;22.24;100.00
30421;BME280;17218;54.070;10.012;2023-06-10T09:28:22;101754.06;;;22.28;100.00
30421;BME280;17218;54.070;10.012;2023-06-10T09:30:49;101759.03;;;22.36;100.00
30421;BME280;17218;54.070;10.012;2023-06-10T09:33:16;101761.06;;;22.52;100.00
30421;BME280;17218;54.070;10.012;2023-06-10T09:35:46;101739.88;;;22.54;100.00
30421;BME280;17218;54.070;10.012;2023-06-10T09:38:19;101737.69;;;22.63;100.00
30421;BME280;17218;54.070;10.012;2023-06-10T09:40:50;101755.94;;;22.70;100.00
30421;BME280;17218;54.070;10.012;2023-06-10T09:43:17;101753.78;;;22.80;100.00
30421;BME280;17218;54.070;10.012;2023-06-10T09:45:43;101753.38;;;22.89;100.00
30421;BME280;17218;54.070;10.012;2023-06-10T09:48:10;101747.88;;;22.94;100.00
30421;BME280;17218;54.070;10.012;2023-06-10T09:50:41;101751.63;;;22.88;100.00
30421;BME280;17218;54.070;10.012;2023-06-10T09:53:09;101752.81;;;23.02;100.00
30421;BME280;17218;54.070;10.012;2023-06-10T09:55:38;101761.00;;;23.16;100.00
30421;BME280;17218;54.070;10.012;2023-06-10T09:58:05;101755.16;;;23.29;100.00
30421;BME280;17218;54.070;10.012;2023-06-10T10:00:32;101755.63;;;23.18;100.00
30421;BME280;17218;54.070;10.012;2023-06-10T10:02:59;101760.84;;;23.19;100.00
30421;BME280;17218;54.070;10.012;2023-06-10T10:05:27;101748.25;;;23.05;100.00
30421;BME280;17218;54.070;10.012;2023-06-10T10:07:55;101760.53;;;23.06;100.00
30421;BME280;17218;54.070;10.012;2023-06-10T10:10:22;101753.00;;;23.18;100.00
30421;BME280;17218;54.070;10.012;2023-06-10T10:12:53;101755.75;;;23.35;100.00
30421;BME280;17218;54.070;10.012;2023-06-10T10:15:21;101758.63;;;23.50;100.00
30421;BME280;17218;54.070;10.012;2023-06-10T10:17:53;101749.50;;;23.57;100.00
30421;BME280;17218;54.070;10.012;2023-06-10T10:20:26;101756.81;;;23.51;100.00
30421;BME280;17218;54.070;10.012;2023-06-10T10:22:56;101742.47;;;23.56;100.00
30421;BME280;17218;54.070;10.012;2023-06-10T10:25:26;101752.19;;;23.75;100.00
30421;BME280;17218;54.070;10.012;2023-06-10T10:27:58;101759.00;;;23.99;100.00
30421;BME280;17218;54.070;10.012;2023-06-10T10:30:25;101748.75;;;24.10;100.00
30421;BME280;17218;54.070;10.012;2023-06-10T10:32:57;101747.69;;;24.14;100.00
30421;BME280;17218;54.070;10.012;2023-06-10T10:35:25;101749.59;;;24.30;100.00
30421;BME280;17218;54.070;10.012;2023-06-10T10:37:52;101744.63;;;24.41;100.00
30421;BME280;17218;54.070;10.012;2023-06-10T10:40:19;101750.63;;;24.45;100.00
30421;BME280;17218;54.070;10.012;2023-06-10T10:42:47;101756.31;;;24.55;100.00
30421;BME280;17218;54.070;10.012;2023-06-10T10:45:16;101764.25;;;24.55;100.00
30421;BME280;17218;54.070;10.012;2023-06-10T10:47:44;101756.16;;;24.76;100.00
30421;BME280;17218;54.070;10.012;2023-06-10T10:50:15;101750.13;;;24.90;100.00
30421;BME280;17218;54.070;10.012;2023-06-10T10:52:53;101755.56;;;25.05;100.00
30421;BME280;17218;54.070;10.012;2023-06-10T10:55:21;101754.06;;;25.17;100.00
30421;BME280;17218;54.070;10.012;2023-06-10T10:57:55;101755.59;;;25.21;100.00
30421;BME280;17218;54.070;10.012;2023-06-10T11:00:30;101757.75;;;25.30;100.00
30421;BME280;17218;54.070;10.012;2023-06-10T11:02:58;101752.81;;;25.40;100.00
30421;BME280;17218;54.070;10.012;2023-06-10T11:05:36;101752.91;;;25.55;100.00
30421;BME280;17218;54.070;10.012;2023-06-10T11:08:04;101755.56;;;25.55;100.00
30421;BME280;17218;54.070;10.012;2023-06-10T11:10:32;101746.34;;;25.78;100.00
30421;BME280;17218;54.070;10.012;2023-06-10T11:12:59;101753.44;;;25.94;100.00
30421;BME280;17218;54.070;10.012;2023-06-10T11:15:27;101748.78;;;26.14;100.00
30421;BME280;17218;54.070;10.012;2023-06-10T11:18:12;101750.28;;;26.34;100.00
30421;BME280;17218;54.070;10.012;2023-06-10T11:20:43;101751.13;;;26.65;100.00
30421;BME280;17218;54.070;10.012;2023-06-10T11:23:10;101742.41;;;26.92;100.00
30421;BME280;17218;54.070;10.012;2023-06-10T11:25:38;101747.84;;;27.06;100.00
30421;BME280;17218;54.070;10.012;2023-06-10T11:28:17;101742.72;;;27.32;93.03
30421;BME280;17218;54.070;10.012;2023-06-10T11:30:44;101745.09;;;27.36;95.62
30421;BME280;17218;54.070;10.012;2023-06-10T11:33:16;101738.00;;;27.65;90.25
30421;BME280;17218;54.070;10.012;2023-06-10T11:35:43;101730.50;;;27.99;87.31
30421;BME280;17218;54.070;10.012;2023-06-10T11:38:09;101746.03;;;28.33;88.52
30421;BME280;17218;54.070;10.012;2023-06-10T11:40:36;101736.25;;;28.60;80.82
30421;BME280;17218;54.070;10.012;2023-06-10T11:43:04;101728.72;;;28.53;83.12
30421;BME280;17218;54.070;10.012;2023-06-10T11:45:30;101725.28;;;28.90;84.76
30421;BME280;17218;54.070;10.012;2023-06-10T11:47:57;101728.47;;;28.96;72.81
30421;BME280;17218;54.070;10.012;2023-06-10T11:50:32;101729.66;;;29.04;72.85
30421;BME280;17218;54.070;10.012;2023-06-10T11:52:59;101728.44;;;29.35;75.65
30421;BME280;17218;54.070;10.012;2023-06-10T11:55:26;101727.47;;;29.60;76.19
30421;BME280;17218;54.070;10.012;2023-06-10T11:58:03;101722.56;;;30.28;70.67
30421;BME280;17218;54.070;10.012;2023-06-10T12:00:30;101731.25;;;30.54;63.35
30421;BME280;17218;54.070;10.012;2023-06-10T12:02:57;101727.00;;;30.63;66.17
30421;BME280;17218;54.070;10.012;2023-06-10T12:05:24;101725.06;;;31.23;66.40
30421;BME280;17218;54.070;10.012;2023-06-10T12:10:45;101728.63;;;32.43;53.12
30421;BME280;17218;54.070;10.012;2023-06-10T12:13:12;101725.03;;;32.54;50.41
30421;BME280;17218;54.070;10.012;2023-06-10T12:15:38;101721.56;;;33.05;52.58
30421;BME280;17218;54.070;10.012;2023-06-10T12:18:05;101717.59;;;33.60;46.17
30421;BME280;17218;54.070;10.012;2023-06-10T12:20:35;101718.47;;;33.71;48.19
30421;BME280;17218;54.070;10.012;2023-06-10T12:23:09;101727.09;;;33.94;46.25
30421;BME280;17218;54.070;10.012;2023-06-10T12:25:36;101726.78;;;33.97;45.60
30421;BME280;17218;54.070;10.012;2023-06-10T12:28:05;101725.19;;;34.34;45.52
30421;BME280;17218;54.070;10.012;2023-06-10T12:30:32;101719.25;;;34.41;41.99
30421;BME280;17218;54.070;10.012;2023-06-10T12:32:59;101729.28;;;34.86;41.97
30421;BME280;17218;54.070;10.012;2023-06-10T12:35:28;101722.75;;;34.89;41.19